sensor_id;sensor_type;location;lat;lon;timestamp;P1;durP1;ratioP1;P2;durP2;ratioP2
54881;SDS011;40775;51.448;4.742;2023-01-19T00:00:53;9.13;;;5.97;;
54881;SDS011;40775;51.448;4.742;2023-01-19T00:03:20;8.45;;;5.50;;
54881;SDS011;40775;51.448;4.742;2023-01-19T00:05:47;10.07;;;5.57;;
54881;SDS011;40775;51.448;4.742;2023-01-19T00:08:14;10.38;;;5.95;;
54881;SDS011;40775;51.448;4.742;2023-01-19T00:10:43;10.23;;;5.80;;
54881;SDS011;40775;51.448;4.742;2023-01-19T00:13:18;10.55;;;5.85;;
54881;SDS011;40775;51.448;4.742;2023-01-19T00:15:45;10.23;;;5.65;;
54881;SDS011;40775;51.448;4.742;2023-01-19T00:18:12;9.98;;;5.22;;
54881;SDS011;40775;51.448;4.742;2023-01-19T00:20:39;9.43;;;5.35;;
54881;SDS011;40775;51.448;4.742;2023-01-19T00:23:07;8.90;;;5.47;;
54881;SDS011;40775;51.448;4.742;2023-01-19T00:25:35;10.63;;;5.90;;
54881;SDS011;40775;51.448;4.742;2023-01-19T00:28:11;10.30;;;6.07;;
54881;SDS011;40775;51.448;4.742;2023-01-19T00:30:40;10.27;;;5.82;;
54881;SDS011;40775;51.448;4.742;2023-01-19T00:33:08;9.10;;;5.65;;
54881;SDS011;40775;51.448;4.742;2023-01-19T00:35:38;9.65;;;6.00;;
54881;SDS011;40775;51.448;4.742;2023-01-19T00:38:08;10.82;;;5.95;;
54881;SDS011;40775;51.448;4.742;2023-01-19T00:40:36;9.30;;;5.97;;
54881;SDS011;40775;51.448;4.742;2023-01-19T00:43:03;9.90;;;5.40;;
54881;SDS011;40775;51.448;4.742;2023-01-19T00:45:31;10.02;;;5.80;;
54881;SDS011;40775;51.448;4.742;2023-01-19T00:47:59;9.40;;;5.60;;
54881;SDS011;40775;51.448;4.742;2023-01-19T00:50:26;8.65;;;5.00;;
54881;SDS011;40775;51.448;4.742;2023-01-19T00:52:56;8.68;;;5.45;;
54881;SDS011;40775;51.448;4.742;2023-01-19T00:55:26;8.73;;;4.78;;
54881;SDS011;40775;51.448;4.742;2023-01-19T00:57:55;9.90;;;5.50;;
54881;SDS011;40775;51.448;4.742;2023-01-19T01:00:22;9.52;;;4.70;;
54881;SDS011;40775;51.448;4.742;2023-01-19T01:02:51;8.82;;;4.82;;
54881;SDS011;40775;51.448;4.742;2023-01-19T01:05:19;11.35;;;6.18;;
54881;SDS011;40775;51.448;4.742;2023-01-19T01:07:46;10.88;;;5.97;;
54881;SDS011;40775;51.448;4.742;2023-01-19T01:12:48;9.65;;;5.30;;
54881;SDS011;40775;51.448;4.742;2023-01-19T01:15:35;9.02;;;4.75;;
54881;SDS011;40775;51.448;4.742;2023-01-19T01:18:02;9.80;;;5.15;;
54881;SDS011;40775;51.448;4.742;2023-01-19T01:20:29;9.80;;;5.30;;
54881;SDS011;40775;51.448;4.742;2023-01-19T01:22:58;8.93;;;4.68;;
54881;SDS011;40775;51.448;4.742;2023-01-19T01:25:26;8.55;;;4.82;;
54881;SDS011;40775;51.448;4.742;2023-01-19T01:27:56;8.50;;;5.00;;
54881;SDS011;40775;51.448;4.742;2023-01-19T01:30:23;10.75;;;5.15;;
54881;SDS011;40775;51.448;4.742;2023-01-19T01:32:50;15.55;;;4.57;;
54881;SDS011;40775;51.448;4.742;2023-01-19T01:35:17;10.68;;;5.35;;
54881;SDS011;40775;51.448;4.742;2023-01-19T01:37:44;8.23;;;4.75;;
54881;SDS011;40775;51.448;4.742;2023-01-19T01:40:12;7.07;;;4.27;;
54881;SDS011;40775;51.448;4.742;2023-01-19T01:42:42;7.07;;;4.00;;
54881;SDS011;40775;51.448;4.742;2023-01-19T01:45:28;7.35;;;4.10;;
54881;SDS011;40775;51.448;4.742;2023-01-19T01:48:02;7.43;;;4.35;;
54881;SDS011;40775;51.448;4.742;2023-01-19T01:50:31;8.68;;;4.57;;
54881;SDS011;40775;51.448;4.742;2023-01-19T01:53:05;8.60;;;4.20;;
54881;SDS011;40775;51.448;4.742;2023-01-19T01:55:40;7.38;;;3.72;;
54881;SDS011;40775;51.448;4.742;2023-01-19T01:58:13;6.57;;;3.80;;
54881;SDS011;40775;51.448;4.742;2023-01-19T02:00:41;9.00;;;4.18;;
54881;SDS011;40775;51.448;4.742;2023-01-19T02:03:27;6.32;;;3.78;;
54881;SDS011;40775;51.448;4.742;2023-01-19T02:05:55;6.80;;;4.20;;
54881;SDS011;40775;51.448;4.742;2023-01-19T02:11:49;9.77;;;3.92;;
54881;SDS011;40775;51.448;4.742;2023-01-19T02:14:34;6.85;;;3.35;;
54881;SDS011;40775;51.448;4.742;2023-01-19T02:17:05;6.97;;;3.85;;
54881;SDS011;40775;51.448;4.742;2023-01-19T02:19:34;6.73;;;3.70;;
54881;SDS011;40775;51.448;4.742;2023-01-19T02:25:04;7.50;;;4.00;;
54881;SDS011;40775;51.448;4.742;2023-01-19T02:27:32;8.95;;;3.78;;
54881;SDS011;40775;51.448;4.742;2023-01-19T02:29:59;6.50;;;3.67;;
54881;SDS011;40775;51.448;4.742;2023-01-19T02:32:28;10.02;;;3.80;;
54881;SDS011;40775;51.448;4.742;2023-01-19T02:34:56;7.20;;;3.50;;
54881;SDS011;40775;51.448;4.742;2023-01-19T02:37:23;7.38;;;3.90;;
54881;SDS011;40775;51.448;4.742;2023-01-19T02:39:55;6.80;;;3.80;;
54881;SDS011;40775;51.448;4.742;2023-01-19T02:42:26;7.05;;;3.58;;
54881;SDS011;40775;51.448;4.742;2023-01-19T02:44:57;7.53;;;3.33;;
54881;SDS011;40775;51.448;4.742;2023-01-19T02:47:25;5.57;;;3.20;;
54881;SDS011;40775;51.448;4.742;2023-01-19T02:49:58;4.68;;;2.70;;
54881;SDS011;40775;51.448;4.742;2023-01-19T02:52:26;7.25;;;3.47;;
54881;SDS011;40775;51.448;4.742;2023-01-19T02:54:57;6.53;;;3.40;;
54881;SDS011;40775;51.448;4.742;2023-01-19T03:00:24;9.77;;;3.42;;
54881;SDS011;40775;51.448;4.742;2023-01-19T03:03:47;6.03;;;3.35;;
54881;SDS011;40775;51.448;4.742;2023-01-19T03:06:48;5.50;;;3.10;;
54881;SDS011;40775;51.448;4.742;2023-01-19T03:09:46;5.65;;;3.05;;
54881;SDS011;40775;51.448;4.742;2023-01-19T03:12:30;5.80;;;3.00;;
54881;SDS011;40775;51.448;4.742;2023-01-19T03:15:21;5.78;;;3.17;;
54881;SDS011;40775;51.448;4.742;2023-01-19T03:18:19;5.25;;;2.97;;
54881;SDS011;40775;51.448;4.742;2023-01-19T03:20:51;5.97;;;3.30;;
54881;SDS011;40775;51.448;4.742;2023-01-19T03:23:25;5.88;;;3.22;;
54881;SDS011;40775;51.448;4.742;2023-01-19T03:25:57;6.00;;;3.10;;
54881;SDS011;40775;51.448;4.742;2023-01-19T03:28:27;7.53;;;3.40;;
54881;SDS011;40775;51.448;4.742;2023-01-19T03:30:57;7.28;;;2.83;;
54881;SDS011;40775;51.448;4.742;2023-01-19T03:33:42;5.13;;;2.83;;
54881;SDS011;40775;51.448;4.742;2023-01-19T03:36:20;4.88;;;2.90;;
54881;SDS011;40775;51.448;4.742;2023-01-19T03:38:57;5.60;;;2.53;;
54881;SDS011;40775;51.448;4.742;2023-01-19T03:41:27;4.75;;;2.83;;
54881;SDS011;40775;51.448;4.742;2023-01-19T03:43:57;6.20;;;3.15;;
54881;SDS011;40775;51.448;4.742;2023-01-19T03:46:25;4.88;;;2.92;;
54881;SDS011;40775;51.448;4.742;2023-01-19T03:48:53;6.20;;;2.88;;
54881;SDS011;40775;51.448;4.742;2023-01-19T03:51:22;5.88;;;2.90;;
54881;SDS011;40775;51.448;4.742;2023-01-19T03:53:49;6.90;;;3.20;;
54881;SDS011;40775;51.448;4.742;2023-01-19T03:56:23;5.07;;;2.85;;
54881;SDS011;40775;51.448;4.742;2023-01-19T03:58:51;5.50;;;2.95;;
54881;SDS011;40775;51.448;4.742;2023-01-19T04:01:18;7.00;;;3.23;;
54881;SDS011;40775;51.448;4.742;2023-01-19T04:03:49;5.20;;;2.97;;
54881;SDS011;40775;51.448;4.742;2023-01-19T04:06:18;7.13;;;3.33;;
54881;SDS011;40775;51.448;4.742;2023-01-19T04:08:47;5.90;;;3.15;;
54881;SDS011;40775;51.448;4.742;2023-01-19T04:11:15;6.55;;;2.83;;
54881;SDS011;40775;51.448;4.742;2023-01-19T04:13:42;5.80;;;3.03;;
54881;SDS011;40775;51.448;4.742;2023-01-19T04:16:10;7.60;;;3.55;;
54881;SDS011;40775;51.448;4.742;2023-01-19T04:18:37;5.72;;;2.90;;
54881;SDS011;40775;51.448;4.742;2023-01-19T04:21:06;6.55;;;4.07;;
54881;SDS011;40775;51.448;4.742;2023-01-19T04:23:33;6.53;;;3.25;;
54881;SDS011;40775;51.448;4.742;2023-01-19T04:26:01;5.60;;;3.10;;
54881;SDS011;40775;51.448;4.742;2023-01-19T04:28:31;4.32;;;2.50;;
54881;SDS011;40775;51.448;4.742;2023-01-19T04:31:00;8.83;;;2.40;;
54881;SDS011;40775;51.448;4.742;2023-01-19T04:33:27;4.65;;;2.30;;
54881;SDS011;40775;51.448;4.742;2023-01-19T04:35:54;3.95;;;2.10;;
54881;SDS011;40775;51.448;4.742;2023-01-19T04:38:22;3.67;;;2.20;;
54881;SDS011;40775;51.448;4.742;2023-01-19T04:40:51;4.57;;;2.05;;
54881;SDS011;40775;51.448;4.742;2023-01-19T04:43:19;3.78;;;1.80;;
54881;SDS011;40775;51.448;4.742;2023-01-19T04:45:47;5.15;;;2.13;;
54881;SDS011;40775;51.448;4.742;2023-01-19T04:48:15;4.65;;;2.22;;
54881;SDS011;40775;51.448;4.742;2023-01-19T04:50:43;3.10;;;1.70;;
54881;SDS011;40775;51.448;4.742;2023-01-19T04:53:11;3.15;;;1.58;;
54881;SDS011;40775;51.448;4.742;2023-01-19T04:55:44;2.78;;;1.40;;
54881;SDS011;40775;51.448;4.742;2023-01-19T04:58:12;2.53;;;1.45;;
54881;SDS011;40775;51.448;4.742;2023-01-19T05:00:39;2.55;;;1.42;;
54881;SDS011;40775;51.448;4.742;2023-01-19T05:03:06;3.63;;;1.67;;
54881;SDS011;40775;51.448;4.742;2023-01-19T05:05:33;3.15;;;1.20;;
54881;SDS011;40775;51.448;4.742;2023-01-19T05:08:00;2.65;;;1.20;;
54881;SDS011;40775;51.448;4.742;2023-01-19T05:10:27;5.60;;;1.45;;
54881;SDS011;40775;51.448;4.742;2023-01-19T05:12:54;3.97;;;1.48;;
54881;SDS011;40775;51.448;4.742;2023-01-19T05:15:21;5.28;;;2.28;;
54881;SDS011;40775;51.448;4.742;2023-01-19T05:17:49;6.23;;;2.00;;
54881;SDS011;40775;51.448;4.742;2023-01-19T05:20:16;5.63;;;2.33;;
54881;SDS011;40775;51.448;4.742;2023-01-19T05:22:50;6.43;;;2.93;;
54881;SDS011;40775;51.448;4.742;2023-01-19T05:25:18;5.45;;;2.60;;
54881;SDS011;40775;51.448;4.742;2023-01-19T05:27:45;6.00;;;2.90;;
54881;SDS011;40775;51.448;4.742;2023-01-19T05:30:14;7.25;;;3.40;;
54881;SDS011;40775;51.448;4.742;2023-01-19T05:32:41;7.70;;;3.38;;
54881;SDS011;40775;51.448;4.742;2023-01-19T05:35:08;7.65;;;3.50;;
54881;SDS011;40775;51.448;4.742;2023-01-19T05:37:35;8.27;;;3.55;;
54881;SDS011;40775;51.448;4.742;2023-01-19T05:40:03;6.53;;;3.38;;
54881;SDS011;40775;51.448;4.742;2023-01-19T05:42:30;7.35;;;3.92;;
54881;SDS011;40775;51.448;4.742;2023-01-19T05:44:58;8.13;;;4.05;;
54881;SDS011;40775;51.448;4.742;2023-01-19T05:47:25;8.90;;;4.20;;
54881;SDS011;40775;51.448;4.742;2023-01-19T05:49:55;10.60;;;4.93;;
54881;SDS011;40775;51.448;4.742;2023-01-19T05:52:22;10.77;;;4.63;;
54881;SDS011;40775;51.448;4.742;2023-01-19T05:54:52;9.63;;;4.13;;
54881;SDS011;40775;51.448;4.742;2023-01-19T05:57:20;8.37;;;4.83;;
54881;SDS011;40775;51.448;4.742;2023-01-19T05:59:48;10.75;;;5.30;;
54881;SDS011;40775;51.448;4.742;2023-01-19T06:02:15;10.95;;;5.80;;
54881;SDS011;40775;51.448;4.742;2023-01-19T06:04:42;10.67;;;5.50;;
54881;SDS011;40775;51.448;4.742;2023-01-19T06:07:10;8.95;;;5.75;;
54881;SDS011;40775;51.448;4.742;2023-01-19T06:09:37;8.60;;;5.73;;
54881;SDS011;40775;51.448;4.742;2023-01-19T06:12:04;9.77;;;5.72;;
54881;SDS011;40775;51.448;4.742;2023-01-19T06:14:31;11.70;;;5.78;;
54881;SDS011;40775;51.448;4.742;2023-01-19T06:16:58;12.45;;;6.63;;
54881;SDS011;40775;51.448;4.742;2023-01-19T06:19:25;11.95;;;6.82;;
54881;SDS011;40775;51.448;4.742;2023-01-19T06:21:52;12.57;;;6.68;;
54881;SDS011;40775;51.448;4.742;2023-01-19T06:24:19;10.90;;;6.05;;
54881;SDS011;40775;51.448;4.742;2023-01-19T06:26:47;11.45;;;6.30;;
54881;SDS011;40775;51.448;4.742;2023-01-19T06:29:14;9.93;;;5.38;;
54881;SDS011;40775;51.448;4.742;2023-01-19T06:31:41;9.25;;;5.40;;
54881;SDS011;40775;51.448;4.742;2023-01-19T06:34:08;9.60;;;5.70;;
54881;SDS011;40775;51.448;4.742;2023-01-19T06:36:35;7.32;;;4.18;;
54881;SDS011;40775;51.448;4.742;2023-01-19T06:39:02;11.27;;;4.90;;
54881;SDS011;40775;51.448;4.742;2023-01-19T06:41:31;9.98;;;4.43;;
54881;SDS011;40775;51.448;4.742;2023-01-19T06:43:59;9.00;;;4.38;;
54881;SDS011;40775;51.448;4.742;2023-01-19T06:46:27;9.82;;;4.18;;
54881;SDS011;40775;51.448;4.742;2023-01-19T06:48:55;4.18;;;2.05;;
54881;SDS011;40775;51.448;4.742;2023-01-19T06:51:22;4.15;;;1.88;;
54881;SDS011;40775;51.448;4.742;2023-01-19T06:53:50;5.10;;;2.53;;
54881;SDS011;40775;51.448;4.742;2023-01-19T06:56:17;5.20;;;2.28;;
54881;SDS011;40775;51.448;4.742;2023-01-19T06:58:46;5.63;;;2.58;;
54881;SDS011;40775;51.448;4.742;2023-01-19T07:01:13;5.35;;;2.20;;
54881;SDS011;40775;51.448;4.742;2023-01-19T07:03:40;4.05;;;1.98;;
54881;SDS011;40775;51.448;4.742;2023-01-19T07:06:08;5.03;;;2.47;;
54881;SDS011;40775;51.448;4.742;2023-01-19T07:08:35;4.63;;;2.03;;
54881;SDS011;40775;51.448;4.742;2023-01-19T07:11:04;4.68;;;1.95;;
54881;SDS011;40775;51.448;4.742;2023-01-19T07:13:54;4.70;;;2.25;;
54881;SDS011;40775;51.448;4.742;2023-01-19T07:16:21;4.57;;;2.13;;
54881;SDS011;40775;51.448;4.742;2023-01-19T07:18:49;3.85;;;2.17;;
54881;SDS011;40775;51.448;4.742;2023-01-19T07:21:16;4.82;;;2.33;;
54881;SDS011;40775;51.448;4.742;2023-01-19T07:23:46;5.27;;;2.17;;
54881;SDS011;40775;51.448;4.742;2023-01-19T07:26:14;4.68;;;1.92;;
54881;SDS011;40775;51.448;4.742;2023-01-19T07:28:45;5.07;;;2.77;;
54881;SDS011;40775;51.448;4.742;2023-01-19T07:31:13;4.95;;;2.10;;
54881;SDS011;40775;51.448;4.742;2023-01-19T07:33:41;5.32;;;2.38;;
54881;SDS011;40775;51.448;4.742;2023-01-19T07:36:08;5.13;;;2.00;;
54881;SDS011;40775;51.448;4.742;2023-01-19T07:38:36;5.00;;;2.33;;
54881;SDS011;40775;51.448;4.742;2023-01-19T07:41:04;3.25;;;1.85;;
54881;SDS011;40775;51.448;4.742;2023-01-19T07:43:34;4.65;;;2.20;;
54881;SDS011;40775;51.448;4.742;2023-01-19T07:46:02;4.40;;;2.00;;
54881;SDS011;40775;51.448;4.742;2023-01-19T07:48:31;4.28;;;1.85;;
54881;SDS011;40775;51.448;4.742;2023-01-19T07:50:58;5.13;;;2.15;;
54881;SDS011;40775;51.448;4.742;2023-01-19T07:53:30;5.38;;;2.42;;
54881;SDS011;40775;51.448;4.742;2023-01-19T07:55:58;6.22;;;2.28;;
54881;SDS011;40775;51.448;4.742;2023-01-19T07:58:25;3.78;;;2.17;;
54881;SDS011;40775;51.448;4.742;2023-01-19T08:00:52;4.85;;;2.20;;
54881;SDS011;40775;51.448;4.742;2023-01-19T08:03:19;3.75;;;1.90;;
54881;SDS011;40775;51.448;4.742;2023-01-19T08:05:50;4.78;;;2.13;;
54881;SDS011;40775;51.448;4.742;2023-01-19T08:08:18;5.45;;;2.28;;
54881;SDS011;40775;51.448;4.742;2023-01-19T08:10:48;4.00;;;1.92;;
54881;SDS011;40775;51.448;4.742;2023-01-19T08:13:16;4.55;;;1.90;;
54881;SDS011;40775;51.448;4.742;2023-01-19T08:15:43;3.78;;;1.55;;
54881;SDS011;40775;51.448;4.742;2023-01-19T08:18:13;4.13;;;1.70;;
54881;SDS011;40775;51.448;4.742;2023-01-19T08:20:41;3.97;;;1.77;;
54881;SDS011;40775;51.448;4.742;2023-01-19T08:23:08;3.08;;;1.60;;
54881;SDS011;40775;51.448;4.742;2023-01-19T08:25:39;4.63;;;2.35;;
54881;SDS011;40775;51.448;4.742;2023-01-19T08:28:10;3.80;;;1.58;;
54881;SDS011;40775;51.448;4.742;2023-01-19T08:30:40;5.57;;;1.63;;
54881;SDS011;40775;51.448;4.742;2023-01-19T08:33:10;3.50;;;1.60;;
54881;SDS011;40775;51.448;4.742;2023-01-19T08:35:41;4.43;;;1.77;;
54881;SDS011;40775;51.448;4.742;2023-01-19T08:38:12;3.13;;;1.77;;
54881;SDS011;40775;51.448;4.742;2023-01-19T08:40:40;4.72;;;1.70;;
54881;SDS011;40775;51.448;4.742;2023-01-19T08:43:08;3.22;;;1.67;;
54881;SDS011;40775;51.448;4.742;2023-01-19T08:45:42;4.32;;;1.52;;
54881;SDS011;40775;51.448;4.742;2023-01-19T08:48:15;5.40;;;1.83;;
54881;SDS011;40775;51.448;4.742;2023-01-19T08:50:47;2.60;;;1.55;;
54881;SDS011;40775;51.448;4.742;2023-01-19T08:53:16;4.93;;;1.80;;
54881;SDS011;40775;51.448;4.742;2023-01-19T08:55:46;3.65;;;1.77;;
54881;SDS011;40775;51.448;4.742;2023-01-19T08:58:13;3.90;;;1.70;;
54881;SDS011;40775;51.448;4.742;2023-01-19T09:00:40;3.90;;;1.40;;
54881;SDS011;40775;51.448;4.742;2023-01-19T09:03:08;4.00;;;1.73;;
54881;SDS011;40775;51.448;4.742;2023-01-19T09:05:38;4.15;;;1.70;;
54881;SDS011;40775;51.448;4.742;2023-01-19T09:08:07;2.75;;;1.60;;
54881;SDS011;40775;51.448;4.742;2023-01-19T09:10:36;4.68;;;1.85;;
54881;SDS011;40775;51.448;4.742;2023-01-19T09:13:05;2.45;;;1.60;;
54881;SDS011;40775;51.448;4.742;2023-01-19T09:15:36;3.33;;;1.63;;
54881;SDS011;40775;51.448;4.742;2023-01-19T09:18:06;3.70;;;1.77;;
54881;SDS011;40775;51.448;4.742;2023-01-19T09:20:37;3.97;;;1.75;;
54881;SDS011;40775;51.448;4.742;2023-01-19T09:23:09;3.65;;;1.50;;
54881;SDS011;40775;51.448;4.742;2023-01-19T09:25:38;3.72;;;1.58;;
54881;SDS011;40775;51.448;4.742;2023-01-19T09:28:07;4.15;;;1.70;;
54881;SDS011;40775;51.448;4.742;2023-01-19T09:30:37;4.45;;;1.63;;
54881;SDS011;40775;51.448;4.742;2023-01-19T09:33:06;3.60;;;1.70;;
54881;SDS011;40775;51.448;4.742;2023-01-19T09:35:43;3.67;;;1.75;;
54881;SDS011;40775;51.448;4.742;2023-01-19T09:38:12;2.58;;;1.35;;
54881;SDS011;40775;51.448;4.742;2023-01-19T09:40:43;2.83;;;1.52;;
54881;SDS011;40775;51.448;4.742;2023-01-19T09:43:27;3.38;;;1.60;;
54881;SDS011;40775;51.448;4.742;2023-01-19T09:46:19;3.22;;;1.63;;
54881;SDS011;40775;51.448;4.742;2023-01-19T09:49:13;3.85;;;1.73;;
54881;SDS011;40775;51.448;4.742;2023-01-19T09:51:50;3.10;;;1.48;;
54881;SDS011;40775;51.448;4.742;2023-01-19T09:54:18;3.45;;;1.83;;
54881;SDS011;40775;51.448;4.742;2023-01-19T09:57:01;3.23;;;1.37;;
54881;SDS011;40775;51.448;4.742;2023-01-19T09:59:34;3.60;;;1.90;;
54881;SDS011;40775;51.448;4.742;2023-01-19T10:05:07;3.95;;;1.58;;
54881;SDS011;40775;51.448;4.742;2023-01-19T10:07:57;3.63;;;1.85;;
54881;SDS011;40775;51.448;4.742;2023-01-19T10:11:43;3.80;;;1.38;;
54881;SDS011;40775;51.448;4.742;2023-01-19T10:14:19;4.07;;;1.80;;
54881;SDS011;40775;51.448;4.742;2023-01-19T10:17:25;2.83;;;1.30;;
54881;SDS011;40775;51.448;4.742;2023-01-19T10:20:27;2.47;;;1.27;;
54881;SDS011;40775;51.448;4.742;2023-01-19T10:23:00;3.65;;;1.48;;
54881;SDS011;40775;51.448;4.742;2023-01-19T10:25:39;3.35;;;1.70;;
54881;SDS011;40775;51.448;4.742;2023-01-19T10:28:07;2.58;;;1.30;;
54881;SDS011;40775;51.448;4.742;2023-01-19T10:30:36;3.67;;;1.92;;
54881;SDS011;40775;51.448;4.742;2023-01-19T10:33:03;4.72;;;1.77;;
54881;SDS011;40775;51.448;4.742;2023-01-19T10:35:30;3.47;;;1.58;;
54881;SDS011;40775;51.448;4.742;2023-01-19T10:37:59;3.35;;;1.33;;
54881;SDS011;40775;51.448;4.742;2023-01-19T10:40:30;3.78;;;1.45;;
54881;SDS011;40775;51.448;4.742;2023-01-19T10:46:00;4.03;;;1.45;;
54881;SDS011;40775;51.448;4.742;2023-01-19T10:48:38;3.38;;;1.45;;
54881;SDS011;40775;51.448;4.742;2023-01-19T10:51:08;2.85;;;1.48;;
54881;SDS011;40775;51.448;4.742;2023-01-19T10:53:36;2.90;;;1.45;;
54881;SDS011;40775;51.448;4.742;2023-01-19T10:56:14;2.88;;;1.38;;
54881;SDS011;40775;51.448;4.742;2023-01-19T10:58:50;2.53;;;1.27;;
54881;SDS011;40775;51.448;4.742;2023-01-19T11:01:24;2.95;;;1.42;;
54881;SDS011;40775;51.448;4.742;2023-01-19T11:03:53;3.05;;;1.23;;
54881;SDS011;40775;51.448;4.742;2023-01-19T11:06:31;2.90;;;1.30;;
54881;SDS011;40775;51.448;4.742;2023-01-19T11:09:08;4.27;;;1.40;;
54881;SDS011;40775;51.448;4.742;2023-01-19T11:11:41;2.60;;;1.47;;
54881;SDS011;40775;51.448;4.742;2023-01-19T11:14:18;2.80;;;1.35;;
54881;SDS011;40775;51.448;4.742;2023-01-19T11:16:54;2.97;;;1.30;;
54881;SDS011;40775;51.448;4.742;2023-01-19T11:19:24;3.13;;;1.20;;
54881;SDS011;40775;51.448;4.742;2023-01-19T11:22:14;3.15;;;1.42;;
54881;SDS011;40775;51.448;4.742;2023-01-19T11:24:48;2.67;;;1.33;;
54881;SDS011;40775;51.448;4.742;2023-01-19T11:27:16;3.28;;;1.33;;
54881;SDS011;40775;51.448;4.742;2023-01-19T11:30:06;3.05;;;1.55;;
54881;SDS011;40775;51.448;4.742;2023-01-19T11:32:43;2.83;;;1.52;;
54881;SDS011;40775;51.448;4.742;2023-01-19T11:38:12;2.90;;;1.40;;
54881;SDS011;40775;51.448;4.742;2023-01-19T11:40:52;3.22;;;1.67;;
54881;SDS011;40775;51.448;4.742;2023-01-19T11:43:23;3.75;;;1.50;;
54881;SDS011;40775;51.448;4.742;2023-01-19T11:46:12;3.80;;;1.70;;
54881;SDS011;40775;51.448;4.742;2023-01-19T11:48:54;3.50;;;1.67;;
54881;SDS011;40775;51.448;4.742;2023-01-19T11:51:38;2.25;;;1.10;;
54881;SDS011;40775;51.448;4.742;2023-01-19T11:54:22;3.00;;;1.40;;
54881;SDS011;40775;51.448;4.742;2023-01-19T11:56:57;1.92;;;1.08;;
54881;SDS011;40775;51.448;4.742;2023-01-19T11:59:25;2.72;;;1.30;;
54881;SDS011;40775;51.448;4.742;2023-01-19T12:01:54;2.40;;;1.23;;
54881;SDS011;40775;51.448;4.742;2023-01-19T12:07:05;5.13;;;1.75;;
54881;SDS011;40775;51.448;4.742;2023-01-19T12:09:38;2.50;;;1.17;;
54881;SDS011;40775;51.448;4.742;2023-01-19T12:12:16;4.35;;;1.35;;
54881;SDS011;40775;51.448;4.742;2023-01-19T12:15:16;3.42;;;1.40;;
54881;SDS011;40775;51.448;4.742;2023-01-19T12:17:48;2.60;;;1.10;;
54881;SDS011;40775;51.448;4.742;2023-01-19T12:20:29;3.33;;;1.20;;
54881;SDS011;40775;51.448;4.742;2023-01-19T12:29:18;3.40;;;1.40;;
54881;SDS011;40775;51.448;4.742;2023-01-19T12:34:45;2.45;;;1.23;;
54881;SDS011;40775;51.448;4.742;2023-01-19T12:39:54;3.33;;;1.50;;
54881;SDS011;40775;51.448;4.742;2023-01-19T12:42:24;3.10;;;1.40;;
54881;SDS011;40775;51.448;4.742;2023-01-19T12:45:03;3.08;;;1.13;;
54881;SDS011;40775;51.448;4.742;2023-01-19T12:47:52;2.65;;;1.10;;
54881;SDS011;40775;51.448;4.742;2023-01-19T12:50:21;1.98;;;1.20;;
54881;SDS011;40775;51.448;4.742;2023-01-19T12:52:55;2.33;;;1.30;;
54881;SDS011;40775;51.448;4.742;2023-01-19T12:55:27;3.90;;;1.23;;
54881;SDS011;40775;51.448;4.742;2023-01-19T13:00:28;2.97;;;1.07;;
54881;SDS011;40775;51.448;4.742;2023-01-19T13:05:51;2.57;;;1.00;;
54881;SDS011;40775;51.448;4.742;2023-01-19T13:08:20;3.80;;;1.33;;
54881;SDS011;40775;51.448;4.742;2023-01-19T13:13:34;2.83;;;1.30;;
54881;SDS011;40775;51.448;4.742;2023-01-19T13:21:42;3.38;;;1.25;;
54881;SDS011;40775;51.448;4.742;2023-01-19T13:24:20;3.88;;;1.88;;
54881;SDS011;40775;51.448;4.742;2023-01-19T13:32:00;2.15;;;1.10;;
54881;SDS011;40775;51.448;4.742;2023-01-19T13:34:55;2.72;;;1.27;;
54881;SDS011;40775;51.448;4.742;2023-01-19T13:37:34;3.50;;;1.65;;
54881;SDS011;40775;51.448;4.742;2023-01-19T13:40:05;4.35;;;2.10;;
54881;SDS011;40775;51.448;4.742;2023-01-19T13:42:41;3.90;;;1.60;;
54881;SDS011;40775;51.448;4.742;2023-01-19T13:47:50;4.68;;;1.98;;
54881;SDS011;40775;51.448;4.742;2023-01-19T13:50:27;5.82;;;2.50;;
54881;SDS011;40775;51.448;4.742;2023-01-19T13:52:57;4.65;;;1.98;;
54881;SDS011;40775;51.448;4.742;2023-01-19T13:55:26;3.13;;;1.80;;
54881;SDS011;40775;51.448;4.742;2023-01-19T13:57:55;4.63;;;1.60;;
54881;SDS011;40775;51.448;4.742;2023-01-19T14:00:26;4.22;;;1.95;;
54881;SDS011;40775;51.448;4.742;2023-01-19T14:02:59;3.80;;;1.67;;
54881;SDS011;40775;51.448;4.742;2023-01-19T14:05:43;3.93;;;1.90;;
54881;SDS011;40775;51.448;4.742;2023-01-19T14:08:12;5.13;;;2.35;;
54881;SDS011;40775;51.448;4.742;2023-01-19T14:10:44;4.10;;;1.80;;
54881;SDS011;40775;51.448;4.742;2023-01-19T14:13:20;4.68;;;1.95;;
54881;SDS011;40775;51.448;4.742;2023-01-19T14:15:55;3.97;;;1.60;;
54881;SDS011;40775;51.448;4.742;2023-01-19T14:18:26;5.68;;;2.03;;
54881;SDS011;40775;51.448;4.742;2023-01-19T14:31:42;3.67;;;1.60;;
54881;SDS011;40775;51.448;4.742;2023-01-19T14:37:14;3.60;;;1.88;;
54881;SDS011;40775;51.448;4.742;2023-01-19T14:40:01;3.87;;;1.43;;
54881;SDS011;40775;51.448;4.742;2023-01-19T14:42:37;4.85;;;1.83;;
54881;SDS011;40775;51.448;4.742;2023-01-19T14:47:52;4.88;;;2.00;;
54881;SDS011;40775;51.448;4.742;2023-01-19T14:50:38;4.37;;;2.10;;
54881;SDS011;40775;51.448;4.742;2023-01-19T14:53:26;4.47;;;2.15;;
54881;SDS011;40775;51.448;4.742;2023-01-19T14:55:55;3.22;;;1.70;;
54881;SDS011;40775;51.448;4.742;2023-01-19T14:58:31;5.43;;;2.35;;
54881;SDS011;40775;51.448;4.742;2023-01-19T15:01:00;4.10;;;1.67;;
54881;SDS011;40775;51.448;4.742;2023-01-19T15:03:28;4.20;;;2.23;;
54881;SDS011;40775;51.448;4.742;2023-01-19T15:06:11;5.50;;;1.90;;
54881;SDS011;40775;51.448;4.742;2023-01-19T15:08:44;3.30;;;1.65;;
54881;SDS011;40775;51.448;4.742;2023-01-19T15:11:33;6.67;;;1.80;;
54881;SDS011;40775;51.448;4.742;2023-01-19T15:14:01;5.78;;;2.35;;
54881;SDS011;40775;51.448;4.742;2023-01-19T15:16:28;3.35;;;1.80;;
54881;SDS011;40775;51.448;4.742;2023-01-19T15:18:59;4.88;;;2.05;;
54881;SDS011;40775;51.448;4.742;2023-01-19T15:21:26;5.10;;;1.93;;
54881;SDS011;40775;51.448;4.742;2023-01-19T15:23:53;3.95;;;1.85;;
54881;SDS011;40775;51.448;4.742;2023-01-19T15:26:22;4.30;;;2.00;;
54881;SDS011;40775;51.448;4.742;2023-01-19T15:28:52;4.55;;;2.05;;
54881;SDS011;40775;51.448;4.742;2023-01-19T15:31:21;3.78;;;1.52;;
54881;SDS011;40775;51.448;4.742;2023-01-19T15:33:50;4.28;;;2.03;;
54881;SDS011;40775;51.448;4.742;2023-01-19T15:36:18;3.97;;;1.75;;
54881;SDS011;40775;51.448;4.742;2023-01-19T15:38:47;4.78;;;1.45;;
54881;SDS011;40775;51.448;4.742;2023-01-19T15:41:21;4.20;;;1.85;;
54881;SDS011;40775;51.448;4.742;2023-01-19T15:43:52;7.40;;;2.17;;
54881;SDS011;40775;51.448;4.742;2023-01-19T15:46:20;3.10;;;1.48;;
54881;SDS011;40775;51.448;4.742;2023-01-19T15:48:49;2.80;;;1.42;;
54881;SDS011;40775;51.448;4.742;2023-01-19T15:51:17;3.92;;;1.90;;
54881;SDS011;40775;51.448;4.742;2023-01-19T15:53:47;5.20;;;1.90;;
54881;SDS011;40775;51.448;4.742;2023-01-19T15:56:15;4.00;;;1.70;;
54881;SDS011;40775;51.448;4.742;2023-01-19T15:58:46;6.70;;;2.30;;
54881;SDS011;40775;51.448;4.742;2023-01-19T16:01:14;21.80;;;13.10;;
54881;SDS011;40775;51.448;4.742;2023-01-19T16:03:43;19.92;;;12.48;;
54881;SDS011;40775;51.448;4.742;2023-01-19T16:06:11;19.63;;;11.77;;
54881;SDS011;40775;51.448;4.742;2023-01-19T16:08:39;17.70;;;11.27;;
54881;SDS011;40775;51.448;4.742;2023-01-19T16:11:07;19.42;;;11.48;;
54881;SDS011;40775;51.448;4.742;2023-01-19T16:13:36;17.30;;;10.82;;
54881;SDS011;40775;51.448;4.742;2023-01-19T16:16:05;18.50;;;11.70;;
54881;SDS011;40775;51.448;4.742;2023-01-19T16:18:42;19.05;;;11.90;;
54881;SDS011;40775;51.448;4.742;2023-01-19T16:21:09;19.42;;;11.05;;
54881;SDS011;40775;51.448;4.742;2023-01-19T16:23:37;21.13;;;11.98;;
54881;SDS011;40775;51.448;4.742;2023-01-19T16:26:05;15.55;;;9.95;;